Antioch, Texas
Current Conditions -  °F | °C
As of 6:15 PM on Sunday 25 Jan 2015 (Local Time) from KOCH Reporting Station
Clear Clear  
Wind Chill: 15°   Ceiling: Unl
Heat Index: 15°   Visibility: 10mi
Dew Point: -4°   Wind: 15mph
Humidity: 27%   Direction: 320°NW
Pressure: 30.03"   Gusts: NA
Location:  31.8636°N, 94.3909°W
Report Text: KOCH 260015Z 32013KT 10SM CLR 15/M04 A3003 RMK AO1
Loading
Personal Weather Stations






























Interactive Weather Map New forecast layout! Learn more

10-Day Weather Forecast

Advertisements
Track Severe Weather on mobile